Time;durP1;ratioP1;P1;durP2;ratioP2;P2;SDS_P1;SDS_P2;PMS_P1;PMS_P2;Temp;Humidity;BMP_temperature;BMP_pressure;BME280_temperature;BME280_humidity;BME280_pressure;Samples;Min_cycle;Max_cycle;Signal;HPM_P1;HPM_P2
2023/04/05 00:00:39;;;;;;;;;;;3.00;99.90;;;;;;5073006;28;19943;-68
2023/04/05 00:03:04;;;;;;;;;;;3.00;99.90;;;;;;5071104;28;19979;-68
2023/04/05 00:05:30;;;;;;;;;;;3.00;99.90;;;;;;5072626;28;19975;-67
2023/04/05 00:07:56;;;;;;;;;;;3.00;99.90;;;;;;5073855;28;19925;-68
2023/04/05 00:10:22;;;;;;;;;;;3.00;99.90;;;;;;5073551;28;19986;-68
2023/04/05 00:12:49;;;;;;;;;;;2.90;99.90;;;;;;5072714;28;19928;-67
2023/04/05 00:15:15;;;;;;;;;;;2.90;99.90;;;;;;5073340;28;20012;-67
2023/04/05 00:17:42;;;;;;;;;;;2.90;99.90;;;;;;5072638;28;20027;-69
2023/04/05 00:20:09;;;;;;;;;;;2.90;99.90;;;;;;5072382;28;20277;-67
2023/04/05 00:22:35;;;;;;;;;;;2.80;99.90;;;;;;5072545;28;19924;-67
2023/04/05 00:25:01;;;;;;;;;;;2.80;99.90;;;;;;5071961;28;19925;-66
2023/04/05 00:27:27;;;;;;;;;;;2.70;99.90;;;;;;5073460;28;19924;-67
2023/04/05 00:29:53;;;;;;;;;;;2.70;99.90;;;;;;5073419;28;19928;-69
2023/04/05 00:32:18;;;;;;;;;;;2.60;99.90;;;;;;5073184;28;19939;-68
2023/04/05 00:34:44;;;;;;;;;;;2.60;99.90;;;;;;5093131;28;20366;-67
2023/04/05 00:37:10;;;;;;;;;;;2.60;99.90;;;;;;5075690;28;19946;-67
2023/04/05 00:39:36;;;;;;;;;;;2.50;99.90;;;;;;5075679;28;20285;-68
2023/04/05 00:42:03;;;;;;;;;;;2.50;99.90;;;;;;5059117;28;19924;-68
2023/04/05 00:44:33;;;;;;;;;;;2.50;99.90;;;;;;5093129;28;20385;-68
2023/04/05 00:47:08;;;;;;;;;;;2.50;99.90;;;;;;5075532;28;19924;-68
2023/04/05 00:49:34;;;;;;;;;;;2.50;99.90;;;;;;5075477;28;19932;-68
2023/04/05 00:52:00;;;;;;;;;;;2.40;99.90;;;;;;5075163;28;20419;-67
2023/04/05 00:54:27;;;;;;;;;;;2.40;99.90;;;;;;5092809;28;19920;-67
2023/04/05 00:56:54;;;;;;;;;;;2.40;99.90;;;;;;5075190;28;19924;-67
2023/04/05 00:59:20;;;;;;;;;;;2.40;99.90;;;;;;5092530;28;19924;-68
2023/04/05 01:01:54;;;;;;;;;;;2.30;99.90;;;;;;5058488;28;20270;-68
2023/04/05 01:04:29;;;;;;;;;;;2.30;99.90;;;;;;5074747;28;19974;-68
2023/04/05 01:06:54;;;;;;;;;;;2.20;99.90;;;;;;5074559;28;19924;-68
2023/04/05 01:09:37;;;;;;;;;;;2.10;99.90;;;;;;5092255;28;20026;-67
2023/04/05 01:12:07;;;;;;;;;;;2.10;99.90;;;;;;5092806;28;20273;-67
2023/04/05 01:14:46;;;;;;;;;;;2.00;99.90;;;;;;5092406;28;19935;-67
2023/04/05 01:17:12;;;;;;;;;;;2.00;99.90;;;;;;5092240;28;20077;-68
2023/04/05 01:19:40;;;;;;;;;;;2.00;99.90;;;;;;5074250;28;20053;-67
2023/04/05 01:22:36;;;;;;;;;;;2.00;99.90;;;;;;5074670;28;19924;-68
2023/04/05 01:25:18;;;;;;;;;;;2.00;99.90;;;;;;5092492;28;19956;-68
2023/04/05 01:27:43;;;;;;;;;;;2.00;99.90;;;;;;5074346;28;19928;-68
2023/04/05 01:30:16;;;;;;;;;;;2.00;99.90;;;;;;5074682;28;19924;-66
2023/04/05 01:32:54;;;;;;;;;;;2.00;99.90;;;;;;5092744;28;19924;-68
2023/04/05 01:35:33;;;;;;;;;;;1.90;99.90;;;;;;5092254;28;19924;-67
2023/04/05 01:38:01;;;;;;;;;;;1.90;99.90;;;;;;5091736;28;19931;-69
2023/04/05 01:40:27;;;;;;;;;;;1.90;99.90;;;;;;5092219;28;19924;-68
2023/04/05 01:42:52;;;;;;;;;;;1.90;99.90;;;;;;5074378;28;19973;-68
2023/04/05 01:45:18;;;;;;;;;;;1.90;99.90;;;;;;5091949;28;19924;-68
2023/04/05 01:47:43;;;;;;;;;;;1.90;99.90;;;;;;5092296;28;19928;-68
2023/04/05 01:50:09;;;;;;;;;;;1.80;99.90;;;;;;5057623;28;19954;-68
2023/04/05 01:52:35;;;;;;;;;;;1.80;99.90;;;;;;5092233;28;20011;-68
2023/04/05 01:55:02;;;;;;;;;;;1.70;99.90;;;;;;5093134;28;19998;-68
2023/04/05 01:57:27;;;;;;;;;;;2.30;99.90;;;;;;5091982;28;19931;-68
2023/04/05 01:59:53;;;;;;;;;;;1.60;99.90;;;;;;5074341;28;20377;-68
2023/04/05 02:02:18;;;;;;;;;;;1.60;99.90;;;;;;5091863;28;20027;-68
2023/04/05 02:04:44;;;;;;;;;;;1.50;99.90;;;;;;5092134;28;19928;-69
2023/04/05 02:07:10;;;;;;;;;;;1.50;99.90;;;;;;5092082;28;20389;-69
2023/04/05 02:09:35;;;;;;;;;;;2.50;99.90;;;;;;5073988;28;20014;-68
2023/04/05 02:12:01;;;;;;;;;;;1.40;99.90;;;;;;5091962;28;19973;-68
2023/04/05 02:14:27;;;;;;;;;;;1.40;99.90;;;;;;5091329;28;19928;-67
2023/04/05 02:16:54;;;;;;;;;;;1.30;99.90;;;;;;5074114;28;20211;-68
2023/04/05 02:19:21;;;;;;;;;;;1.20;99.90;;;;;;5091699;28;19924;-67
2023/04/05 02:21:52;;;;;;;;;;;1.20;99.90;;;;;;5092155;28;19963;-68
2023/04/05 02:24:18;;;;;;;;;;;1.20;99.90;;;;;;5073975;28;20018;-66
2023/04/05 02:26:44;;;;;;;;;;;1.20;99.90;;;;;;5075959;28;20373;-68
2023/04/05 02:29:09;;;;;;;;;;;1.20;99.90;;;;;;5096088;28;19924;-68
2023/04/05 02:31:35;;;;;;;;;;;1.20;99.90;;;;;;5095587;28;19931;-68
2023/04/05 02:34:00;;;;;;;;;;;1.10;99.90;;;;;;5060712;28;19924;-68
2023/04/05 02:36:29;;;;;;;;;;;1.10;99.90;;;;;;5095478;28;20604;-67
2023/04/05 02:38:54;;;;;;;;;;;1.10;99.90;;;;;;5095665;28;19924;-68
2023/04/05 02:41:22;;;;;;;;;;;1.10;99.90;;;;;;5095241;28;19931;-66
2023/04/05 02:43:48;;;;;;;;;;;1.00;99.90;;;;;;5095837;28;19928;-67
2023/04/05 02:46:14;;;;;;;;;;;1.00;99.90;;;;;;5095813;28;19924;-68
2023/04/05 02:48:40;;;;;;;;;;;1.00;99.90;;;;;;5095092;28;20471;-68
2023/04/05 02:51:05;;;;;;;;;;;1.00;99.90;;;;;;5095761;28;19969;-68
2023/04/05 02:53:31;;;;;;;;;;;1.00;99.90;;;;;;5095189;28;19924;-69
2023/04/05 02:55:58;;;;;;;;;;;1.00;99.90;;;;;;5095527;28;20015;-68
2023/04/05 02:58:24;;;;;;;;;;;1.00;99.90;;;;;;5060377;28;19925;-68
2023/04/05 03:00:50;;;;;;;;;;;1.00;99.90;;;;;;5095427;28;19924;-68
2023/04/05 03:03:17;;;;;;;;;;;1.00;99.90;;;;;;5095330;28;19924;-68
2023/04/05 03:05:43;;;;;;;;;;;1.00;99.90;;;;;;5094783;28;19920;-67
2023/04/05 03:08:17;;;;;;;;;;;1.00;99.90;;;;;;5095299;28;20262;-68
2023/04/05 03:10:44;;;;;;;;;;;1.30;99.90;;;;;;5060411;28;19985;-68
2023/04/05 03:13:09;;;;;;;;;;;1.20;99.90;;;;;;5078149;28;19931;-69
2023/04/05 03:15:35;;;;;;;;;;;0.90;99.90;;;;;;5096079;28;20296;-69
2023/04/05 03:18:01;;;;;;;;;;;0.90;99.90;;;;;;5095743;28;20369;-69
2023/04/05 03:20:26;;;;;;;;;;;0.80;99.90;;;;;;5077145;28;19993;-64
2023/04/05 03:22:52;;;;;;;;;;;0.80;99.90;;;;;;5095332;28;19924;-68
2023/04/05 03:25:17;;;;;;;;;;;0.80;99.90;;;;;;5076244;28;20435;-68
2023/04/05 03:27:44;;;;;;;;;;;0.80;99.90;;;;;;5094495;28;19928;-68
2023/04/05 03:30:09;;;;;;;;;;;0.80;99.90;;;;;;5094693;28;20004;-68
2023/04/05 03:32:35;;;;;;;;;;;0.80;99.90;;;;;;5094160;28;19924;-70
2023/04/05 03:35:01;;;;;;;;;;;0.80;99.90;;;;;;5076662;28;19931;-68
2023/04/05 03:37:26;;;;;;;;;;;0.80;99.90;;;;;;5094442;28;19932;-68
2023/04/05 03:39:52;;;;;;;;;;;0.80;99.90;;;;;;5076317;28;19928;-68
2023/04/05 03:42:17;;;;;;;;;;;0.80;99.90;;;;;;5076418;28;19924;-68
2023/04/05 03:44:43;;;;;;;;;;;1.30;99.90;;;;;;5076113;28;19932;-68
2023/04/05 03:47:09;;;;;;;;;;;0.70;99.90;;;;;;5094126;28;19971;-69
2023/04/05 03:49:34;;;;;;;;;;;0.70;99.90;;;;;;5076250;28;19924;-69
2023/04/05 03:52:00;;;;;;;;;;;0.70;99.90;;;;;;5076585;28;20369;-68
2023/04/05 03:54:25;;;;;;;;;;;0.60;99.90;;;;;;5094279;28;19964;-69
2023/04/05 03:56:51;;;;;;;;;;;0.80;99.90;;;;;;5075814;28;19931;-68
2023/04/05 03:59:17;;;;;;;;;;;0.50;99.90;;;;;;5094244;28;19924;-68
2023/04/05 04:01:43;;;;;;;;;;;0.40;99.90;;;;;;5075772;28;19925;-69
2023/04/05 04:04:09;;;;;;;;;;;0.40;99.90;;;;;;5076477;28;19924;-69
2023/04/05 04:06:36;;;;;;;;;;;0.40;99.90;;;;;;5075770;28;20018;-69
2023/04/05 04:09:04;;;;;;;;;;;0.40;99.90;;;;;;5076130;28;19968;-69
2023/04/05 04:11:30;;;;;;;;;;;0.40;99.90;;;;;;5076379;28;19958;-68
2023/04/05 04:13:55;;;;;;;;;;;0.90;99.90;;;;;;5059262;28;20277;-68
2023/04/05 04:16:21;;;;;;;;;;;0.60;99.90;;;;;;5059568;28;19925;-69
2023/04/05 04:18:46;;;;;;;;;;;0.50;99.90;;;;;;5075551;28;20381;-68
2023/04/05 04:21:13;;;;;;;;;;;0.60;99.90;;;;;;5093642;28;19977;-70
2023/04/05 04:23:39;;;;;;;;;;;0.50;99.90;;;;;;5093491;28;19924;-68
2023/04/05 04:26:05;;;;;;;;;;;0.60;99.90;;;;;;5075932;28;19924;-68
2023/04/05 04:28:33;;;;;;;;;;;0.50;99.90;;;;;;5075438;28;20412;-68
2023/04/05 04:31:03;;;;;;;;;;;0.50;99.90;;;;;;5093603;28;19924;-68
2023/04/05 04:33:29;;;;;;;;;;;0.50;99.90;;;;;;5093493;28;19931;-68
2023/04/05 04:35:55;;;;;;;;;;;0.50;99.90;;;;;;5075387;28;20566;-68
2023/04/05 04:38:21;;;;;;;;;;;0.50;99.90;;;;;;5093734;28;19924;-67
2023/04/05 04:40:49;;;;;;;;;;;0.50;99.90;;;;;;5075228;28;20289;-69
2023/04/05 04:43:17;;;;;;;;;;;0.50;99.90;;;;;;5059263;28;20401;-68
2023/04/05 04:45:46;;;;;;;;;;;0.50;99.90;;;;;;5092847;28;20408;-69
2023/04/05 04:48:13;;;;;;;;;;;0.50;99.90;;;;;;5074884;28;19967;-69
2023/04/05 04:50:39;;;;;;;;;;;0.40;99.90;;;;;;5092529;28;20315;-68
2023/04/05 04:53:05;;;;;;;;;;;0.40;99.90;;;;;;5075287;28;20284;-69
2023/04/05 04:55:32;;;;;;;;;;;0.40;99.90;;;;;;5092918;28;19950;-69
2023/04/05 04:57:57;;;;;;;;;;;0.40;99.90;;;;;;5074498;28;20002;-69
2023/04/05 05:00:23;;;;;;;;;;;1.30;99.90;;;;;;5075002;28;20039;-68
2023/04/05 05:02:50;;;;;;;;;;;0.50;99.90;;;;;;5074928;28;19947;-70
2023/04/05 05:05:15;;;;;;;;;;;0.50;99.90;;;;;;5075002;28;19924;-69
2023/04/05 05:07:41;;;;;;;;;;;0.70;99.90;;;;;;5074436;28;20243;-67
2023/04/05 05:10:07;;;;;;;;;;;0.50;99.90;;;;;;5074754;28;19924;-70
2023/04/05 05:12:33;;;;;;;;;;;0.50;99.90;;;;;;5074903;28;19924;-68
2023/04/05 05:14:58;;;;;;;;;;;0.50;99.90;;;;;;5074684;28;19989;-69
2023/04/05 05:17:24;;;;;;;;;;;0.50;99.90;;;;;;5092942;28;19949;-69
2023/04/05 05:19:50;;;;;;;;;;;0.80;99.90;;;;;;5092334;28;19947;-68
2023/04/05 05:22:16;;;;;;;;;;;0.70;99.90;;;;;;5092914;28;19924;-70
2023/04/05 05:24:42;;;;;;;;;;;0.70;99.90;;;;;;5074278;28;19924;-68
2023/04/05 05:27:08;;;;;;;;;;;0.50;99.90;;;;;;5092539;28;19924;-69
2023/04/05 05:29:34;;;;;;;;;;;0.70;99.90;;;;;;5092671;28;20030;-68
2023/04/05 05:31:59;;;;;;;;;;;0.50;99.90;;;;;;5073992;28;19924;-68
2023/04/05 05:34:25;;;;;;;;;;;0.70;99.90;;;;;;5074280;28;19924;-70
2023/04/05 05:36:52;;;;;;;;;;;0.50;99.90;;;;;;5092177;28;19931;-69
2023/04/05 05:39:18;;;;;;;;;;;0.60;99.90;;;;;;5074374;28;19932;-69
2023/04/05 05:41:44;;;;;;;;;;;0.70;99.90;;;;;;5074466;28;19932;-66
2023/04/05 05:44:09;;;;;;;;;;;1.20;99.90;;;;;;5057939;28;20018;-69
2023/04/05 05:46:35;;;;;;;;;;;1.90;99.90;;;;;;5074556;28;19981;-69
2023/04/05 05:49:00;;;;;;;;;;;2.80;99.90;;;;;;5092261;28;19969;-69
2023/04/05 05:51:26;;;;;;;;;;;3.50;99.90;;;;;;5092584;28;20412;-68
2023/04/05 05:53:52;;;;;;;;;;;4.30;99.90;;;;;;5092257;28;19924;-68
2023/04/05 05:56:17;;;;;;;;;;;4.90;99.90;;;;;;5074327;28;19924;-69
2023/04/05 05:58:43;;;;;;;;;;;5.60;99.90;;;;;;5092421;28;19935;-69
2023/04/05 06:01:10;;;;;;;;;;;6.20;99.90;;;;;;5074224;28;20021;-69
2023/04/05 06:03:36;;;;;;;;;;;6.60;99.90;;;;;;5092298;28;19925;-68
2023/04/05 06:06:04;;;;;;;;;;;7.10;99.90;;;;;;5057221;28;20396;-68
2023/04/05 06:08:30;;;;;;;;;;;7.50;99.90;;;;;;5092091;28;20353;-68
2023/04/05 06:10:56;;;;;;;;;;;8.00;99.90;;;;;;5091735;28;19924;-68
2023/04/05 06:13:21;;;;;;;;;;;8.30;99.90;;;;;;5073976;28;19947;-69
2023/04/05 06:15:47;;;;;;;;;;;8.20;99.90;;;;;;5057505;28;20022;-69
2023/04/05 06:18:13;;;;;;;;;;;7.60;99.90;;;;;;5091857;28;19935;-69
2023/04/05 06:20:43;;;;;;;;;;;7.10;99.90;;;;;;5092089;28;19924;-69
2023/04/05 06:23:09;;;;;;;;;;;6.70;99.90;;;;;;5091395;28;19946;-69
2023/04/05 06:25:35;;;;;;;;;;;6.80;99.90;;;;;;5091761;28;19924;-68
2023/04/05 06:28:04;;;;;;;;;;;7.10;99.90;;;;;;5091698;28;19977;-68
2023/04/05 06:30:30;;;;;;;;;;;7.50;99.90;;;;;;5092005;28;19924;-68
2023/04/05 06:32:56;;;;;;;;;;;7.90;99.90;;;;;;5073623;28;19924;-68
2023/04/05 06:35:22;;;;;;;;;;;8.10;99.90;;;;;;5091843;28;19924;-68
2023/04/05 06:37:48;;;;;;;;;;;8.30;99.90;;;;;;5073664;28;19928;-68
2023/04/05 06:40:13;;;;;;;;;;;8.80;99.90;;;;;;5091401;28;20273;-69
2023/04/05 06:42:39;;;;;;;;;;;9.10;99.90;;;;;;5091746;28;19977;-71
2023/04/05 06:45:05;;;;;;;;;;;9.20;99.90;;;;;;5091364;28;19924;-67
2023/04/05 06:47:35;;;;;;;;;;;9.20;99.90;;;;;;5057001;28;19930;-68
2023/04/05 06:50:01;;;;;;;;;;;9.40;99.90;;;;;;5057159;28;20076;-68
2023/04/05 06:52:27;;;;;;;;;;;9.70;99.90;;;;;;5073941;28;19924;-69
2023/04/05 06:54:52;;;;;;;;;;;9.70;99.90;;;;;;5073528;28;19930;-68
2023/04/05 06:57:18;;;;;;;;;;;10.20;99.90;;;;;;5073003;28;19931;-67
2023/04/05 06:59:43;;;;;;;;;;;10.50;99.40;;;;;;5073517;28;20019;-68
2023/04/05 07:02:09;;;;;;;;;;;10.50;99.90;;;;;;5073310;28;20019;-69
2023/04/05 07:04:36;;;;;;;;;;;10.60;97.90;;;;;;5091754;28;20288;-69
2023/04/05 07:07:02;;;;;;;;;;;10.60;99.70;;;;;;5091230;28;19931;-68
2023/04/05 07:09:31;;;;;;;;;;;10.50;98.70;;;;;;5073877;28;19924;-67
2023/04/05 07:11:57;;;;;;;;;;;10.50;99.70;;;;;;5073892;28;19978;-69
2023/04/05 07:14:23;;;;;;;;;;;10.60;97.90;;;;;;5095306;28;19935;-68
2023/04/05 07:16:48;;;;;;;;;;;10.90;98.50;;;;;;5077171;28;20369;-68
2023/04/05 07:19:14;;;;;;;;;;;11.30;99.30;;;;;;5043059;28;19931;-68
2023/04/05 07:21:42;;;;;;;;;;;11.50;96.90;;;;;;5094434;28;20327;-68
2023/04/05 07:24:07;;;;;;;;;;;12.00;97.40;;;;;;5094595;28;19977;-69
2023/04/05 07:26:34;;;;;;;;;;;12.20;95.30;;;;;;5076632;28;19928;-71
2023/04/05 07:29:00;;;;;;;;;;;12.30;95.70;;;;;;5076641;28;19924;-69
2023/04/05 07:31:26;;;;;;;;;;;12.80;97.40;;;;;;5076670;28;19924;-66
2023/04/05 07:33:52;;;;;;;;;;;13.00;95.50;;;;;;5094260;28;19924;-68
2023/04/05 07:36:17;;;;;;;;;;;13.10;94.20;;;;;;5094420;28;19936;-68
2023/04/05 07:38:43;;;;;;;;;;;13.50;96.10;;;;;;5094678;28;19928;-68
2023/04/05 07:41:10;;;;;;;;;;;;;;;;;;5094448;28;19931;-67
2023/04/05 07:43:36;;;;;;;;;;;13.80;94.60;;;;;;5094665;28;19928;-69
2023/04/05 07:46:02;;;;;;;;;;;14.50;93.50;;;;;;5059584;28;20019;-68
2023/04/05 07:48:28;;;;;;;;;;;15.00;92.10;;;;;;5094234;28;19931;-69
2023/04/05 07:50:53;;;;;;;;;;;15.50;93.80;;;;;;5094524;28;19928;-68
2023/04/05 07:53:19;;;;;;;;;;;15.70;92.30;;;;;;5094339;28;19924;-68
2023/04/05 07:55:45;;;;;;;;;;;15.90;92.20;;;;;;5076487;28;19924;-68
2023/04/05 07:58:11;;;;;;;;;;;16.40;91.70;;;;;;5093987;28;19931;-68
2023/04/05 08:00:36;;;;;;;;;;;16.80;91.40;;;;;;5043177;28;20007;-68
2023/04/05 08:03:03;;;;;;;;;;;17.00;89.20;;;;;;5076133;28;19959;-68
2023/04/05 08:05:29;;;;;;;;;;;16.90;89.30;;;;;;5094226;28;19925;-68
2023/04/05 08:07:56;;;;;;;;;;;17.50;91.20;;;;;;5059541;28;19973;-68
2023/04/05 08:10:22;;;;;;;;;;;17.80;90.90;;;;;;5093776;28;20393;-68
2023/04/05 08:12:48;;;;;;;;;;;17.90;90.00;;;;;;5059759;28;19924;-68
2023/04/05 08:15:14;;;;;;;;;;;18.20;89.70;;;;;;5093873;28;19924;-67
2023/04/05 08:17:39;;;;;;;;;;;18.30;88.30;;;;;;5076022;28;20408;-68
2023/04/05 08:20:05;;;;;;;;;;;18.10;85.90;;;;;;5075703;28;19924;-67
2023/04/05 08:22:31;;;;;;;;;;;18.50;85.30;;;;;;5075908;28;20023;-69
2023/04/05 08:24:56;;;;;;;;;;;18.70;84.40;;;;;;5092866;28;20396;-67
2023/04/05 08:27:22;;;;;;;;;;;18.90;84.40;;;;;;5058908;28;19931;-67
2023/04/05 08:29:48;;;;;;;;;;;19.30;82.60;;;;;;5093750;28;19924;-68
2023/04/05 08:32:13;;;;;;;;;;;19.10;83.20;;;;;;5075172;28;19924;-67
2023/04/05 08:34:39;;;;;;;;;;;19.40;82.00;;;;;;5093878;28;19924;-68
2023/04/05 08:37:05;;;;;;;;;;;19.50;78.60;;;;;;5075755;28;19963;-67
2023/04/05 08:39:33;;;;;;;;;;;19.40;78.90;;;;;;5092971;28;19931;-67
2023/04/05 08:42:03;;;;;;;;;;;19.70;80.10;;;;;;5075639;28;19950;-66
2023/04/05 08:44:29;;;;;;;;;;;19.50;79.00;;;;;;5093082;28;19931;-67
2023/04/05 08:46:57;;;;;;;;;;;19.70;77.30;;;;;;5093032;28;19971;-68
2023/04/05 08:49:22;;;;;;;;;;;19.70;78.00;;;;;;5092723;28;19931;-68
2023/04/05 08:51:48;;;;;;;;;;;20.00;79.70;;;;;;5093178;28;20377;-68
2023/04/05 08:54:13;;;;;;;;;;;20.00;75.60;;;;;;5073131;28;20324;-68
2023/04/05 08:56:41;;;;;;;;;;;20.10;76.10;;;;;;5090578;28;20028;-67
2023/04/05 08:59:08;;;;;;;;;;;20.00;75.00;;;;;;5092872;28;20023;-67
2023/04/05 09:01:37;;;;;;;;;;;20.10;73.20;;;;;;5092507;28;19936;-66
2023/04/05 09:04:08;;;;;;;;;;;20.30;73.90;;;;;;5074926;28;19928;-67
2023/04/05 09:06:35;;;;;;;;;;;20.50;74.10;;;;;;5092554;28;19946;-68
2023/04/05 09:09:04;;;;;;;;;;;20.40;74.70;;;;;;5092987;28;19949;-66
2023/04/05 09:11:30;;;;;;;;;;;20.10;71.30;;;;;;5092341;28;19931;-66
2023/04/05 09:13:55;;;;;;;;;;;20.00;72.90;;;;;;5074666;28;20293;-67
2023/04/05 09:16:21;;;;;;;;;;;19.80;72.40;;;;;;5073793;28;19924;-66
2023/04/05 09:18:48;;;;;;;;;;;20.20;74.80;;;;;;5092617;28;19972;-66
2023/04/05 09:21:14;;;;;;;;;;;20.10;73.50;;;;;;5057888;28;19935;-70
2023/04/05 09:23:49;;;;;;;;;;;20.00;72.60;;;;;;5091950;28;20370;-68
2023/04/05 09:26:20;;;;;;;;;;;20.10;74.10;;;;;;5074347;28;19924;-68
2023/04/05 09:28:46;;;;;;;;;;;20.10;71.40;;;;;;5074337;28;20350;-67
2023/04/05 09:31:30;;;;;;;;;;;19.10;71.70;;;;;;5092208;28;19924;-66
2023/04/05 09:34:01;;;;;;;;;;;18.20;71.60;;;;;;5056613;28;19924;-68
2023/04/05 09:36:27;;;;;;;;;;;17.30;73.30;;;;;;5073794;28;20297;-67
2023/04/05 09:39:02;;;;;;;;;;;16.30;72.60;;;;;;5074230;28;19928;-67
2023/04/05 09:41:28;;;;;;;;;;;15.50;73.50;;;;;;5073884;28;19924;-68
2023/04/05 09:43:53;;;;;;;;;;;14.90;73.90;;;;;;5092255;28;20241;-67
2023/04/05 09:46:32;;;;;;;;;;;14.60;74.20;;;;;;5073617;28;19986;-67
2023/04/05 09:48:59;;;;;;;;;;;14.20;75.70;;;;;;5092212;28;19923;-67
2023/04/05 09:51:30;;;;;;;;;;;14.30;75.60;;;;;;5091683;28;19924;-66
2023/04/05 09:54:04;;;;;;;;;;;13.80;75.30;;;;;;5074503;28;19930;-68
2023/04/05 09:56:32;;;;;;;;;;;13.40;76.00;;;;;;5091604;28;20006;-67
2023/04/05 09:59:00;;;;;;;;;;;13.20;77.20;;;;;;5091883;28;20022;-67
2023/04/05 10:01:27;;;;;;;;;;;13.00;77.40;;;;;;5073586;28;19932;-67
2023/04/05 10:03:53;;;;;;;;;;;13.00;77.90;;;;;;5074236;28;19983;-67
2023/04/05 10:06:18;;;;;;;;;;;13.00;76.50;;;;;;5073352;28;19967;-68
2023/04/05 10:08:47;;;;;;;;;;;12.70;76.10;;;;;;5091455;28;20022;-67
2023/04/05 10:11:16;;;;;;;;;;;12.70;76.90;;;;;;5073786;28;19928;-67
2023/04/05 10:13:42;;;;;;;;;;;12.80;77.70;;;;;;5073562;28;19925;-68
2023/04/05 10:16:10;;;;;;;;;;;12.80;77.60;;;;;;5073841;28;20284;-66
2023/04/05 10:18:41;;;;;;;;;;;12.80;76.70;;;;;;5091349;28;20026;-66
2023/04/05 10:21:10;;;;;;;;;;;12.60;77.50;;;;;;5073669;28;20369;-67
2023/04/05 10:23:36;;;;;;;;;;;12.60;77.80;;;;;;5055603;28;19925;-67
2023/04/05 10:26:30;;;;;;;;;;;12.50;78.00;;;;;;5073608;28;19924;-69
2023/04/05 10:29:00;;;;;;;;;;;12.50;77.80;;;;;;5073953;28;19924;-67
2023/04/05 10:31:44;;;;;;;;;;;12.90;76.90;;;;;;5073463;28;19924;-68
2023/04/05 10:34:17;;;;;;;;;;;13.10;76.40;;;;;;5072947;28;19994;-67
2023/04/05 10:36:54;;;;;;;;;;;13.30;75.90;;;;;;5073405;28;19924;-66
2023/04/05 10:39:33;;;;;;;;;;;13.40;75.60;;;;;;5056895;28;20349;-67
2023/04/05 10:42:00;;;;;;;;;;;13.30;76.20;;;;;;5090798;28;19931;-66
2023/04/05 10:44:25;;;;;;;;;;;13.10;76.00;;;;;;5056580;28;19999;-69
2023/04/05 10:46:52;;;;;;;;;;;12.90;75.40;;;;;;5074319;28;20299;-65
2023/04/05 10:49:29;;;;;;;;;;;12.70;76.20;;;;;;5095099;28;19949;-65
2023/04/05 10:51:56;;;;;;;;;;;12.70;77.50;;;;;;5060474;28;20069;-65
2023/04/05 10:54:21;;;;;;;;;;;12.60;77.90;;;;;;5076555;28;19947;-66
2023/04/05 10:56:47;;;;;;;;;;;12.80;76.60;;;;;;5076978;28;19928;-67
2023/04/05 10:59:13;;;;;;;;;;;13.00;76.90;;;;;;5094971;28;19928;-67
2023/04/05 11:01:39;;;;;;;;;;;12.90;76.50;;;;;;5076625;28;19932;-67
2023/04/05 11:04:12;;;;;;;;;;;13.00;76.80;;;;;;5077158;28;19931;-67
2023/04/05 11:06:38;;;;;;;;;;;13.20;76.60;;;;;;5076711;28;19924;-69
2023/04/05 11:09:20;;;;;;;;;;;13.10;76.90;;;;;;5077183;28;20432;-67
2023/04/05 11:11:46;;;;;;;;;;;13.10;76.60;;;;;;5094831;28;20023;-67
2023/04/05 11:14:18;;;;;;;;;;;13.20;76.20;;;;;;5095043;28;20046;-68
2023/04/05 11:16:45;;;;;;;;;;;13.20;76.30;;;;;;5060102;28;19928;-66
2023/04/05 11:19:10;;;;;;;;;;;13.10;76.40;;;;;;5076743;28;19924;-66
2023/04/05 11:21:36;;;;;;;;;;;12.90;75.70;;;;;;5076712;28;19931;-65
2023/04/05 11:24:03;;;;;;;;;;;13.30;75.80;;;;;;5076480;28;19982;-68
2023/04/05 11:26:32;;;;;;;;;;;13.40;74.80;;;;;;5076663;28;19974;-69
2023/04/05 11:28:58;;;;;;;;;;;13.40;75.10;;;;;;5076817;28;19946;-68
2023/04/05 11:31:25;;;;;;;;;;;13.50;74.50;;;;;;5076586;28;19924;-69
2023/04/05 11:34:09;;;;;;;;;;;13.30;75.70;;;;;;5076199;28;20042;-69
2023/04/05 11:36:35;;;;;;;;;;;13.10;74.80;;;;;;5076633;28;20262;-69
2023/04/05 11:39:22;;;;;;;;;;;13.00;75.20;;;;;;5076386;28;19930;-68
2023/04/05 11:41:55;;;;;;;;;;;12.70;75.70;;;;;;5076537;28;19986;-69
2023/04/05 11:44:22;;;;;;;;;;;12.50;76.80;;;;;;5076812;28;20433;-69
2023/04/05 11:46:48;;;;;;;;;;;12.30;76.50;;;;;;5060212;28;19928;-69
2023/04/05 11:49:14;;;;;;;;;;;12.30;77.10;;;;;;5060008;28;19953;-69
2023/04/05 11:51:47;;;;;;;;;;;12.30;76.70;;;;;;5076566;28;19924;-68
2023/04/05 11:54:13;;;;;;;;;;;12.30;76.80;;;;;;5059573;28;19935;-70
2023/04/05 11:56:38;;;;;;;;;;;12.20;78.20;;;;;;5076261;28;19932;-68
2023/04/05 11:59:04;;;;;;;;;;;12.40;77.40;;;;;;5076072;28;19924;-69
2023/04/05 12:01:30;;;;;;;;;;;12.40;76.80;;;;;;5076452;28;20403;-68
2023/04/05 12:03:56;;;;;;;;;;;12.50;77.40;;;;;;5076234;28;19924;-68
2023/04/05 12:06:22;;;;;;;;;;;12.50;77.40;;;;;;5094085;28;20015;-68
2023/04/05 12:08:52;;;;;;;;;;;12.30;76.90;;;;;;5094336;28;19967;-68
2023/04/05 12:11:23;;;;;;;;;;;12.30;76.60;;;;;;5076501;28;19931;-69
2023/04/05 12:13:52;;;;;;;;;;;12.10;76.30;;;;;;5094066;28;19924;-68
2023/04/05 12:16:18;;;;;;;;;;;12.00;76.70;;;;;;5076238;28;20297;-68
2023/04/05 12:18:43;;;;;;;;;;;11.80;77.10;;;;;;5075744;28;19924;-68
2023/04/05 12:21:09;;;;;;;;;;;11.80;76.90;;;;;;5094194;28;19924;-69
2023/04/05 12:23:36;;;;;;;;;;;11.90;77.10;;;;;;5076240;28;19924;-69
2023/04/05 12:26:02;;;;;;;;;;;11.90;77.30;;;;;;5075895;28;19924;-69
2023/04/05 12:28:48;;;;;;;;;;;11.80;77.50;;;;;;5075885;28;19924;-69
2023/04/05 12:31:13;;;;;;;;;;;11.80;77.70;;;;;;5076119;28;20404;-70
2023/04/05 12:33:40;;;;;;;;;;;11.70;77.50;;;;;;5074945;28;19928;-68
2023/04/05 12:36:06;;;;;;;;;;;11.60;76.80;;;;;;5074842;28;19924;-70
2023/04/05 12:38:32;;;;;;;;;;;11.50;77.30;;;;;;5075808;28;19924;-68
2023/04/05 12:40:58;;;;;;;;;;;11.60;77.20;;;;;;5093790;28;20216;-68
2023/04/05 12:43:24;;;;;;;;;;;11.60;77.20;;;;;;5059177;28;19982;-67
2023/04/05 12:45:53;;;;;;;;;;;11.60;77.10;;;;;;5075167;28;19963;-67
2023/04/05 12:48:20;;;;;;;;;;;11.60;77.30;;;;;;5075646;28;19924;-68
2023/04/05 12:50:47;;;;;;;;;;;11.70;76.80;;;;;;5093311;28;20327;-69
2023/04/05 12:53:20;;;;;;;;;;;11.70;77.40;;;;;;5075183;28;20419;-70
2023/04/05 12:55:49;;;;;;;;;;;11.70;77.70;;;;;;5074995;28;20289;-69
2023/04/05 12:58:16;;;;;;;;;;;11.70;77.80;;;;;;5058732;28;19924;-69
2023/04/05 13:00:42;;;;;;;;;;;11.60;77.40;;;;;;5075357;28;19924;-68
2023/04/05 13:03:14;;;;;;;;;;;11.50;77.60;;;;;;5058761;28;20450;-69
2023/04/05 13:05:40;;;;;;;;;;;11.30;76.60;;;;;;5075398;28;19930;-69
2023/04/05 13:08:06;;;;;;;;;;;11.40;77.50;;;;;;5075012;28;19928;-68
2023/04/05 13:10:31;;;;;;;;;;;11.40;77.80;;;;;;5092819;28;19932;-69
2023/04/05 13:12:57;;;;;;;;;;;11.40;77.60;;;;;;5092441;28;19925;-69
2023/04/05 13:15:23;;;;;;;;;;;11.40;77.40;;;;;;5092863;28;19982;-69
2023/04/05 13:17:49;;;;;;;;;;;11.40;77.60;;;;;;5092537;28;19935;-68
2023/04/05 13:20:16;;;;;;;;;;;11.40;77.20;;;;;;5058553;28;19924;-69
2023/04/05 13:22:42;;;;;;;;;;;11.40;77.40;;;;;;5075111;28;19925;-68
2023/04/05 13:25:08;;;;;;;;;;;11.30;77.50;;;;;;5074558;28;19931;-68
2023/04/05 13:27:33;;;;;;;;;;;11.20;77.90;;;;;;5074464;28;20015;-68
2023/04/05 13:29:59;;;;;;;;;;;11.40;77.30;;;;;;5092308;28;19924;-69
2023/04/05 13:32:24;;;;;;;;;;;11.50;76.10;;;;;;5074812;28;20035;-69
2023/04/05 13:34:50;;;;;;;;;;;11.40;76.60;;;;;;5073966;28;19932;-69
2023/04/05 13:37:16;;;;;;;;;;;11.50;76.40;;;;;;5092357;28;19924;-69
2023/04/05 13:39:41;;;;;;;;;;;11.70;77.00;;;;;;5074441;28;19998;-69
2023/04/05 13:42:07;;;;;;;;;;;11.70;76.50;;;;;;5092176;28;19931;-69
2023/04/05 13:44:32;;;;;;;;;;;11.70;77.20;;;;;;5074748;28;19928;-69
2023/04/05 13:46:58;;;;;;;;;;;11.70;76.60;;;;;;5074254;28;19924;-69
2023/04/05 13:49:24;;;;;;;;;;;11.70;76.10;;;;;;5058100;28;20001;-69
2023/04/05 13:51:49;;;;;;;;;;;11.60;76.50;;;;;;5057471;28;19925;-68
2023/04/05 13:54:15;;;;;;;;;;;11.50;76.90;;;;;;5058036;28;19931;-70
2023/04/05 13:56:41;;;;;;;;;;;11.60;77.00;;;;;;5074693;28;19931;-70
2023/04/05 13:59:06;;;;;;;;;;;11.60;76.30;;;;;;5092241;28;19938;-70
2023/04/05 14:01:33;;;;;;;;;;;11.50;75.80;;;;;;5057879;28;20022;-70
2023/04/05 14:03:58;;;;;;;;;;;11.40;75.00;;;;;;5074075;28;19930;-69
2023/04/05 14:06:24;;;;;;;;;;;11.40;76.00;;;;;;5074494;28;19924;-69
2023/04/05 14:08:53;;;;;;;;;;;11.40;74.60;;;;;;5074302;28;19924;-69
2023/04/05 14:11:20;;;;;;;;;;;11.50;74.80;;;;;;5092303;28;19969;-68
2023/04/05 14:13:46;;;;;;;;;;;11.40;75.10;;;;;;5074244;28;20327;-68
2023/04/05 14:16:12;;;;;;;;;;;11.30;75.10;;;;;;5073724;28;19928;-68
2023/04/05 14:18:37;;;;;;;;;;;11.30;75.10;;;;;;5091914;28;19935;-69
2023/04/05 14:21:03;;;;;;;;;;;11.30;75.10;;;;;;5074117;28;20281;-69
2023/04/05 14:23:29;;;;;;;;;;;11.30;75.70;;;;;;5077472;28;19924;-69